createdAt,value
2022-11-28T00:01:18.312Z,6.95
2022-11-28T00:03:45.820Z,6.57
2022-11-28T00:06:13.416Z,6.65
2022-11-28T00:08:40.974Z,7.07
2022-11-28T00:11:10.643Z,6.68
2022-11-28T00:13:38.158Z,7.68
2022-11-28T00:16:07.338Z,6.80
2022-11-28T00:18:35.022Z,7.32
2022-11-28T00:21:02.855Z,7.20
2022-11-28T00:23:30.638Z,6.88
2022-11-28T00:25:59.011Z,7.60
2022-11-28T00:28:27.943Z,7.55
2022-11-28T00:30:55.447Z,7.47
2022-11-28T00:33:22.904Z,7.07
2022-11-28T00:35:50.436Z,8.55
2022-11-28T00:38:17.973Z,8.95
2022-11-28T00:40:45.454Z,8.07
2022-11-28T00:43:12.956Z,7.50
2022-11-28T00:45:41.827Z,8.25
2022-11-28T00:48:09.327Z,8.00
2022-11-28T00:50:36.806Z,8.73
2022-11-28T00:53:04.253Z,8.32
2022-11-28T00:55:31.737Z,7.88
2022-11-28T00:57:59.195Z,8.40
2022-11-28T01:00:26.686Z,8.90
2022-11-28T01:02:55.563Z,8.02
2022-11-28T01:05:29.015Z,8.15
2022-11-28T01:07:56.584Z,8.27
2022-11-28T01:10:24.141Z,8.15
2022-11-28T01:12:51.621Z,8.75
2022-11-28T01:15:19.096Z,8.55
2022-11-28T01:17:46.539Z,9.02
2022-11-28T01:20:15.796Z,8.75
2022-11-28T01:22:43.285Z,8.20
2022-11-28T01:25:10.792Z,9.52
2022-11-28T01:27:38.332Z,9.52
2022-11-28T01:30:06.571Z,9.80
2022-11-28T01:32:34.071Z,8.77
2022-11-28T01:35:01.513Z,9.02
2022-11-28T01:37:31.329Z,9.05
2022-11-28T01:39:58.796Z,8.90
2022-11-28T01:42:26.282Z,8.73
2022-11-28T01:45:08.916Z,8.93
2022-11-28T01:47:36.586Z,8.90
2022-11-28T01:50:05.200Z,9.07
2022-11-28T01:52:34.836Z,9.73
2022-11-28T01:55:02.748Z,9.30
2022-11-28T01:57:30.351Z,9.10
2022-11-28T01:59:59.653Z,8.18
2022-11-28T02:02:30.428Z,9.27
2022-11-28T02:04:59.136Z,8.95
2022-11-28T02:07:26.803Z,9.02
2022-11-28T02:09:56.068Z,9.18
2022-11-28T02:12:29.103Z,9.30
2022-11-28T02:15:04.057Z,8.93
2022-11-28T02:17:39.411Z,8.07
2022-11-28T02:20:21.802Z,8.45
2022-11-28T02:22:51.703Z,9.45
2022-11-28T02:25:43.070Z,9.10
2022-11-28T02:28:29.598Z,7.82
2022-11-28T02:31:02.973Z,8.18
2022-11-28T02:33:33.273Z,8.18
2022-11-28T02:36:05.711Z,8.50
2022-11-28T02:38:40.142Z,8.20
2022-11-28T02:41:09.176Z,8.32
2022-11-28T02:43:41.676Z,7.97
2022-11-28T02:46:13.955Z,7.88
2022-11-28T02:48:46.923Z,8.30
2022-11-28T02:51:16.166Z,8.18
2022-11-28T02:53:45.656Z,7.57
2022-11-28T02:56:13.624Z,7.45
2022-11-28T02:58:41.201Z,8.07
2022-11-28T03:01:13.821Z,7.35
2022-11-28T03:03:49.656Z,8.27
2022-11-28T03:06:22.297Z,8.48
2022-11-28T03:09:03.685Z,7.97
2022-11-28T03:11:37.435Z,8.90
2022-11-28T03:14:09.278Z,7.75
2022-11-28T03:16:41.734Z,8.50
2022-11-28T03:19:11.724Z,8.25
2022-11-28T03:21:41.082Z,9.18
2022-11-28T03:24:12.424Z,8.40
2022-11-28T03:26:44.889Z,8.45
2022-11-28T03:29:14.698Z,8.82
2022-11-28T03:31:43.250Z,8.70
2022-11-28T03:34:14.702Z,8.70
2022-11-28T03:39:10.509Z,8.38
2022-11-28T03:41:40.035Z,8.93
2022-11-28T03:44:09.269Z,8.43
2022-11-28T03:46:37.983Z,9.57
2022-11-28T03:49:09.332Z,9.50
2022-11-28T03:51:39.233Z,8.40
2022-11-28T03:54:09.346Z,8.45
2022-11-28T03:56:40.367Z,8.70
2022-11-28T03:59:10.444Z,10.00
2022-11-28T04:01:45.302Z,9.18
2022-11-28T04:04:17.423Z,9.48
2022-11-28T04:06:52.909Z,8.40
2022-11-28T04:09:22.876Z,9.70
2022-11-28T04:11:52.908Z,7.80
2022-11-28T04:14:23.056Z,9.25
2022-11-28T04:16:54.272Z,9.00
2022-11-28T04:19:24.572Z,9.57
2022-11-28T04:21:55.735Z,10.05
2022-11-28T04:24:24.561Z,9.15
2022-11-28T04:26:54.907Z,9.85
2022-11-28T04:29:24.438Z,9.50
2022-11-28T04:31:54.177Z,9.50
2022-11-28T04:34:23.068Z,8.65
2022-11-28T04:36:51.128Z,9.20
2022-11-28T04:39:20.883Z,8.93
2022-11-28T04:41:50.438Z,8.90
2022-11-28T04:44:21.930Z,9.70
2022-11-28T04:46:52.636Z,9.43
2022-11-28T04:49:20.198Z,9.43
2022-11-28T04:51:51.435Z,9.77
2022-11-28T04:54:23.909Z,9.27
2022-11-28T04:56:53.890Z,9.82
2022-11-28T04:59:22.539Z,9.90
2022-11-28T05:01:50.920Z,9.68
2022-11-28T05:04:18.499Z,9.43
2022-11-28T05:06:46.251Z,9.05
2022-11-28T05:09:14.080Z,9.63
2022-11-28T05:11:42.964Z,9.20
2022-11-28T05:14:10.481Z,10.00
2022-11-28T05:16:38.049Z,9.80
2022-11-28T05:19:05.605Z,9.43
2022-11-28T05:21:33.102Z,8.45
2022-11-28T05:24:00.854Z,9.43
2022-11-28T05:26:32.060Z,8.90
2022-11-28T05:29:00.957Z,9.00
2022-11-28T05:31:28.937Z,9.13
2022-11-28T05:33:56.854Z,8.88
2022-11-28T05:36:24.552Z,9.32
2022-11-28T05:38:52.017Z,9.00
2022-11-28T05:41:20.159Z,8.57
2022-11-28T05:43:47.619Z,9.23
2022-11-28T05:46:16.985Z,9.35
2022-11-28T05:48:44.538Z,8.27
2022-11-28T05:51:12.013Z,9.20
2022-11-28T05:53:39.554Z,8.95
2022-11-28T05:56:07.888Z,8.15
2022-11-28T05:58:35.507Z,9.00
2022-11-28T06:01:09.729Z,9.48
2022-11-28T06:03:38.555Z,8.80
2022-11-28T06:06:09.240Z,9.07
2022-11-28T06:08:37.125Z,9.27
2022-11-28T06:11:04.661Z,8.85
2022-11-28T06:13:32.108Z,9.27
2022-11-28T06:15:59.587Z,9.57
2022-11-28T06:18:27.195Z,9.27
2022-11-28T06:20:55.995Z,9.05
2022-11-28T06:23:24.224Z,9.32
2022-11-28T06:25:51.740Z,9.82
2022-11-28T06:28:19.218Z,9.45
2022-11-28T06:30:46.699Z,9.77
2022-11-28T06:33:14.276Z,9.55
2022-11-28T06:35:41.827Z,9.65
2022-11-28T06:38:14.186Z,9.65
2022-11-28T06:40:42.242Z,9.95
2022-11-28T06:43:09.729Z,10.75
2022-11-28T06:45:37.246Z,9.60
2022-11-28T06:48:04.790Z,10.65
2022-11-28T06:50:33.560Z,10.75
2022-11-28T06:53:01.018Z,9.45
2022-11-28T06:55:30.321Z,10.43
2022-11-28T06:57:57.806Z,10.35
2022-11-28T07:00:25.556Z,9.55
2022-11-28T07:02:53.056Z,10.27
2022-11-28T07:05:21.844Z,9.65
2022-11-28T07:07:54.185Z,10.25
2022-11-28T07:10:22.236Z,10.23
2022-11-28T07:12:55.442Z,10.43
2022-11-28T07:15:23.280Z,10.27
2022-11-28T07:17:51.032Z,9.95
2022-11-28T07:20:18.601Z,8.77
2022-11-28T07:22:47.666Z,9.10
2022-11-28T07:25:15.946Z,9.90
2022-11-28T07:27:43.560Z,10.38
2022-11-28T07:30:12.697Z,10.10
2022-11-28T07:32:40.445Z,10.95
2022-11-28T07:35:08.939Z,9.73
2022-11-28T07:37:36.564Z,9.55
2022-11-28T07:40:04.908Z,10.05
2022-11-28T07:42:32.394Z,10.88
2022-11-28T07:44:59.865Z,10.13
2022-11-28T07:47:28.878Z,9.95
2022-11-28T07:49:56.521Z,10.52
2022-11-28T07:52:23.999Z,10.77
2022-11-28T07:54:51.486Z,10.27
2022-11-28T07:57:18.992Z,10.35
2022-11-28T07:59:46.446Z,9.52
2022-11-28T08:02:14.059Z,10.57
2022-11-28T08:04:49.405Z,11.57
2022-11-28T08:07:19.676Z,10.23
2022-11-28T08:09:47.209Z,9.90
2022-11-28T08:12:14.654Z,10.10
2022-11-28T08:14:42.589Z,10.82
2022-11-28T08:17:10.611Z,10.23
2022-11-28T08:19:38.117Z,10.02
2022-11-28T08:22:06.925Z,10.65
2022-11-28T08:24:34.380Z,10.40
2022-11-28T08:27:01.846Z,9.48
2022-11-28T08:29:29.383Z,10.40
2022-11-28T08:31:56.922Z,10.98
2022-11-28T08:34:24.530Z,10.48
2022-11-28T08:36:52.004Z,10.48
2022-11-28T08:39:25.077Z,10.75
2022-11-28T08:41:52.996Z,9.82
2022-11-28T08:44:20.445Z,9.68
2022-11-28T08:46:47.884Z,9.88
2022-11-28T08:49:15.971Z,9.23
2022-11-28T08:51:43.497Z,10.02
2022-11-28T08:54:11.039Z,9.93
2022-11-28T08:56:39.859Z,10.27
2022-11-28T08:59:07.789Z,10.75
2022-11-28T09:01:35.467Z,9.05
2022-11-28T09:04:03.000Z,9.85
2022-11-28T09:06:30.555Z,9.60
2022-11-28T09:08:58.787Z,9.32
2022-11-28T09:11:26.261Z,9.85
2022-11-28T09:13:55.646Z,9.52
2022-11-28T09:16:23.235Z,9.35
2022-11-28T09:18:51.080Z,9.18
2022-11-28T09:21:18.571Z,9.38
2022-11-28T09:23:46.058Z,9.48
2022-11-28T09:26:14.643Z,8.98
2022-11-28T09:28:42.312Z,8.35
2022-11-28T09:31:12.313Z,8.98
2022-11-28T09:33:39.907Z,9.68
2022-11-28T09:36:08.084Z,9.10
2022-11-28T09:38:35.790Z,9.80
2022-11-28T09:41:03.739Z,9.70
2022-11-28T09:43:32.668Z,8.85
2022-11-28T09:46:01.209Z,9.27
2022-11-28T09:48:34.737Z,9.13
2022-11-28T09:51:06.194Z,9.32
2022-11-28T09:53:38.746Z,9.48
2022-11-28T09:56:10.361Z,9.45
2022-11-28T09:58:40.951Z,10.00
2022-11-28T10:01:15.196Z,9.38
2022-11-28T10:03:46.393Z,10.45
2022-11-28T10:06:16.964Z,10.30
2022-11-28T10:08:53.089Z,9.75
2022-11-28T10:11:27.971Z,9.07
2022-11-28T10:14:08.151Z,10.45
2022-11-28T10:16:42.543Z,9.45
2022-11-28T10:19:31.699Z,10.27
2022-11-28T10:22:04.831Z,9.50
2022-11-28T10:24:39.242Z,11.02
2022-11-28T10:27:07.106Z,10.13
2022-11-28T10:29:39.518Z,9.85
2022-11-28T10:32:07.416Z,9.27
2022-11-28T10:34:39.213Z,9.45
2022-11-28T10:37:08.493Z,9.30
2022-11-28T10:39:44.466Z,9.73
2022-11-28T10:42:16.144Z,10.10
2022-11-28T10:44:58.503Z,8.45
2022-11-28T10:47:31.688Z,9.00
2022-11-28T10:50:03.681Z,9.40
2022-11-28T10:52:35.450Z,9.02
2022-11-28T10:55:12.412Z,9.63
2022-11-28T10:57:44.293Z,10.25
2022-11-28T11:00:13.211Z,9.73
2022-11-28T11:02:42.678Z,9.43
2022-11-28T11:05:15.278Z,9.82
2022-11-28T11:07:47.375Z,9.25
2022-11-28T11:10:16.462Z,9.68
2022-11-28T11:12:44.074Z,9.75
2022-11-28T11:15:19.560Z,10.20
2022-11-28T11:17:47.095Z,8.85
2022-11-28T11:20:33.648Z,9.88
2022-11-28T11:23:01.836Z,9.35
2022-11-28T11:25:30.218Z,9.20
2022-11-28T11:28:00.798Z,9.07
2022-11-28T11:30:29.438Z,9.52
2022-11-28T11:32:57.471Z,9.30
2022-11-28T11:35:25.809Z,9.43
2022-11-28T11:37:55.988Z,8.65
2022-11-28T11:40:26.602Z,8.50
2022-11-28T11:42:55.462Z,9.57
2022-11-28T11:45:33.290Z,9.07
2022-11-28T11:50:29.493Z,8.15
2022-11-28T11:53:05.530Z,8.77
2022-11-28T11:55:34.754Z,8.05
2022-11-28T11:58:05.852Z,8.68
2022-11-28T12:00:36.049Z,8.00
2022-11-28T12:03:06.187Z,8.48
2022-11-28T12:05:59.361Z,7.25
2022-11-28T12:08:32.624Z,8.13
2022-11-28T12:11:07.864Z,7.75
2022-11-28T12:13:35.458Z,7.75
2022-11-28T12:16:06.356Z,8.23
2022-11-28T12:18:38.106Z,7.97
2022-11-28T12:21:13.297Z,7.53
2022-11-28T12:23:53.331Z,7.53
2022-11-28T12:26:24.724Z,8.23
2022-11-28T12:29:00.988Z,8.05
2022-11-28T12:31:32.096Z,8.48
2022-11-28T12:36:29.748Z,8.05
2022-11-28T12:39:10.257Z,8.25
2022-11-28T12:41:47.285Z,8.27
2022-11-28T12:44:20.879Z,7.57
2022-11-28T12:46:54.894Z,7.97
2022-11-28T12:49:25.223Z,9.23
2022-11-28T12:51:57.003Z,7.80
2022-11-28T12:54:34.835Z,8.63
2022-11-28T12:59:34.091Z,8.60
2022-11-28T13:02:09.655Z,8.93
2022-11-28T13:04:58.201Z,8.75
2022-11-28T13:07:30.143Z,8.52
2022-11-28T13:10:05.118Z,9.50
2022-11-28T13:12:42.272Z,8.93
2022-11-28T13:15:12.984Z,9.02
2022-11-28T13:17:43.858Z,8.60
2022-11-28T13:20:17.375Z,8.90
2022-11-28T13:22:50.488Z,9.18
2022-11-28T13:25:22.702Z,8.55
2022-11-28T13:27:52.235Z,9.68
2022-11-28T13:30:22.110Z,9.25
2022-11-28T13:32:53.721Z,9.20
2022-11-28T13:35:21.537Z,9.40
2022-11-28T13:40:44.011Z,10.10
2022-11-28T13:43:14.205Z,9.43
2022-11-28T13:45:43.305Z,9.23
2022-11-28T13:51:32.067Z,10.18
2022-11-28T13:54:18.851Z,9.18
2022-11-28T13:56:48.984Z,9.75
2022-11-28T13:59:18.298Z,9.15
2022-11-28T14:01:46.670Z,10.25
2022-11-28T14:04:15.134Z,9.23
2022-11-28T14:06:44.918Z,9.60
2022-11-28T14:09:20.571Z,10.10
2022-11-28T14:11:55.967Z,9.82
2022-11-28T14:14:50.512Z,10.60
2022-11-28T14:17:24.718Z,10.52
2022-11-28T14:19:58.578Z,10.05
2022-11-28T14:22:35.853Z,10.45
2022-11-28T14:25:06.368Z,10.75
2022-11-28T14:27:37.215Z,11.43
2022-11-28T14:30:05.149Z,11.15
2022-11-28T14:32:34.721Z,12.35
2022-11-28T14:35:02.809Z,11.93
2022-11-28T14:37:57.735Z,12.63
2022-11-28T14:40:43.654Z,11.70
2022-11-28T14:43:28.321Z,12.25
2022-11-28T14:46:10.638Z,12.10
2022-11-28T14:48:42.069Z,12.30
2022-11-28T14:51:10.008Z,12.82
2022-11-28T14:53:38.872Z,13.40
2022-11-28T14:56:10.559Z,13.40
2022-11-28T14:58:39.455Z,13.52
2022-11-28T15:01:11.490Z,14.20
2022-11-28T15:03:42.349Z,13.10
2022-11-28T15:06:12.237Z,13.88
2022-11-28T15:08:54.095Z,14.55
2022-11-28T15:11:36.395Z,14.63
2022-11-28T15:14:11.404Z,14.98
2022-11-28T15:16:46.634Z,13.57
2022-11-28T15:19:21.530Z,13.75
2022-11-28T15:21:50.813Z,14.90
2022-11-28T15:24:23.873Z,14.45
2022-11-28T15:26:57.043Z,13.27
2022-11-28T15:29:27.486Z,14.15
2022-11-28T15:31:56.759Z,14.60
2022-11-28T15:34:25.990Z,13.48
2022-11-28T15:36:54.032Z,13.85
2022-11-28T15:39:29.411Z,13.68
2022-11-28T15:41:58.168Z,13.82
2022-11-28T15:44:27.524Z,14.25
2022-11-28T15:46:55.101Z,13.98
2022-11-28T15:49:26.752Z,13.93
2022-11-28T15:51:55.216Z,13.75
2022-11-28T15:54:27.024Z,13.55
2022-11-28T15:56:58.152Z,14.02
2022-11-28T15:59:27.123Z,14.00
2022-11-28T16:01:59.257Z,13.55
2022-11-28T16:04:27.387Z,14.05
2022-11-28T16:06:57.019Z,14.10
2022-11-28T16:09:27.403Z,13.90
2022-11-28T16:11:55.429Z,13.07
2022-11-28T16:14:25.150Z,13.95
2022-11-28T16:16:54.385Z,15.05
2022-11-28T16:19:24.574Z,13.77
2022-11-28T16:21:53.674Z,14.55
2022-11-28T16:24:25.817Z,13.77
2022-11-28T16:26:59.647Z,15.35
2022-11-28T16:29:34.514Z,14.77
2022-11-28T16:32:10.432Z,13.65
2022-11-28T16:34:45.259Z,15.18
2022-11-28T16:37:13.089Z,15.13
2022-11-28T16:39:40.933Z,14.38
2022-11-28T16:42:14.860Z,15.77
2022-11-28T16:44:42.417Z,15.40
2022-11-28T16:47:24.410Z,14.90
2022-11-28T16:50:04.677Z,15.95
2022-11-28T16:52:43.657Z,16.05
2022-11-28T16:55:26.083Z,15.25
2022-11-28T16:57:55.498Z,15.38
2022-11-28T17:00:23.082Z,16.52
2022-11-28T17:02:53.923Z,14.40
2022-11-28T17:05:21.510Z,16.33
2022-11-28T17:07:49.101Z,16.10
2022-11-28T17:10:16.801Z,16.10
2022-11-28T17:12:44.381Z,17.13
2022-11-28T17:15:15.365Z,15.60
2022-11-28T17:17:43.122Z,17.55
2022-11-28T17:20:13.949Z,17.45
2022-11-28T17:22:43.223Z,15.20
2022-11-28T17:25:14.894Z,16.63
2022-11-28T17:27:42.432Z,17.48
2022-11-28T17:30:14.063Z,16.60
2022-11-28T17:32:41.710Z,15.98
2022-11-28T17:35:14.602Z,16.52
2022-11-28T17:37:42.151Z,17.10
2022-11-28T17:40:27.566Z,17.42
2022-11-28T17:42:55.107Z,18.45
2022-11-28T17:45:22.961Z,16.88
2022-11-28T17:47:50.531Z,17.35
2022-11-28T17:50:19.529Z,17.30
2022-11-28T17:52:47.101Z,18.45
2022-11-28T17:55:14.622Z,18.55
2022-11-28T17:57:42.215Z,18.02
2022-11-28T18:00:10.386Z,17.55
2022-11-28T18:02:38.045Z,18.23
2022-11-28T18:05:06.235Z,18.33
2022-11-28T18:07:35.233Z,17.92
2022-11-28T18:10:02.847Z,18.88
2022-11-28T18:12:30.405Z,19.17
2022-11-28T18:14:59.511Z,19.02
2022-11-28T18:17:27.055Z,18.05
2022-11-28T18:19:57.649Z,18.77
2022-11-28T18:22:25.326Z,18.90
2022-11-28T18:24:54.277Z,19.17
2022-11-28T18:27:21.854Z,19.30
2022-11-28T18:29:49.423Z,18.92
2022-11-28T18:32:16.989Z,18.73
2022-11-28T18:34:44.697Z,18.35
2022-11-28T18:37:12.279Z,19.17
2022-11-28T18:39:39.800Z,19.90
2022-11-28T18:42:08.759Z,18.98
2022-11-28T18:44:36.297Z,18.90
2022-11-28T18:47:03.879Z,19.55
2022-11-28T18:49:31.468Z,19.27
2022-11-28T18:51:59.014Z,19.60
2022-11-28T18:54:26.780Z,19.55
2022-11-28T18:56:54.435Z,18.52
2022-11-28T18:59:23.591Z,19.58
2022-11-28T19:01:51.246Z,20.67
2022-11-28T19:04:18.793Z,19.67
2022-11-28T19:06:48.300Z,18.63
2022-11-28T19:09:16.417Z,18.42
2022-11-28T19:11:44.405Z,19.67
2022-11-28T19:14:15.317Z,19.55
2022-11-28T19:16:45.061Z,18.67
2022-11-28T19:19:12.760Z,19.02
2022-11-28T19:21:40.362Z,19.75
2022-11-28T19:24:09.065Z,18.08
2022-11-28T19:26:37.995Z,18.50
2022-11-28T19:29:05.912Z,18.67
2022-11-28T19:31:34.492Z,18.65
2022-11-28T19:34:04.618Z,18.60
2022-11-28T19:36:32.838Z,16.88
2022-11-28T19:39:00.637Z,17.73
2022-11-28T19:41:29.132Z,18.90
2022-11-28T19:43:56.770Z,18.30
2022-11-28T19:46:24.342Z,18.20
2022-11-28T19:48:51.945Z,17.08
2022-11-28T19:51:21.034Z,17.13
2022-11-28T19:53:48.571Z,17.65
2022-11-28T19:56:17.321Z,18.08
2022-11-28T19:58:45.268Z,18.75
2022-11-28T20:01:14.202Z,17.67
2022-11-28T20:03:42.315Z,18.17
2022-11-28T20:06:09.967Z,18.30
2022-11-28T20:08:39.339Z,17.65
2022-11-28T20:11:10.822Z,18.02
2022-11-28T20:13:38.409Z,18.23
2022-11-28T20:16:06.508Z,18.10
2022-11-28T20:18:34.106Z,18.23
2022-11-28T20:21:06.158Z,18.23
2022-11-28T20:23:33.806Z,18.38
2022-11-28T20:26:06.568Z,17.73
2022-11-28T20:28:34.326Z,16.50
2022-11-28T20:31:02.285Z,18.50
2022-11-28T20:33:30.270Z,18.88
2022-11-28T20:36:05.440Z,18.75
2022-11-28T20:38:32.958Z,18.90
2022-11-28T20:41:00.960Z,18.25
2022-11-28T20:43:31.195Z,18.30
2022-11-28T20:46:02.481Z,18.77
2022-11-28T20:50:57.858Z,16.77
2022-11-28T20:53:27.071Z,17.52
2022-11-28T20:55:59.534Z,18.15
2022-11-28T20:58:27.182Z,18.00
2022-11-28T21:00:56.267Z,18.85
2022-11-28T21:03:23.899Z,18.17
2022-11-28T21:05:54.220Z,18.27
2022-11-28T21:08:25.504Z,18.15
2022-11-28T21:10:53.189Z,17.70
2022-11-28T21:13:20.804Z,18.13
2022-11-28T21:15:48.352Z,16.92
2022-11-28T21:18:17.489Z,18.80
2022-11-28T21:20:46.082Z,17.85
2022-11-28T21:23:14.184Z,17.98
2022-11-28T21:25:42.270Z,17.67
2022-11-28T21:28:10.484Z,18.08
2022-11-28T21:30:40.236Z,18.83
2022-11-28T21:33:07.801Z,17.92
2022-11-28T21:35:37.012Z,17.48
2022-11-28T21:38:04.753Z,18.05
2022-11-28T21:40:32.582Z,18.30
2022-11-28T21:43:00.175Z,17.15
2022-11-28T21:45:27.894Z,18.90
2022-11-28T21:47:55.467Z,16.42
2022-11-28T21:50:23.018Z,17.67
2022-11-28T21:52:51.913Z,17.15
2022-11-28T21:55:19.475Z,16.55
2022-11-28T21:57:47.050Z,16.00
2022-11-28T22:00:38.296Z,18.75
2022-11-28T22:03:05.845Z,17.15
2022-11-28T22:05:43.970Z,17.50
2022-11-28T22:08:12.903Z,17.42
2022-11-28T22:10:40.432Z,16.95
2022-11-28T22:13:07.955Z,17.75
2022-11-28T22:15:35.595Z,17.08
2022-11-28T22:18:03.130Z,17.17
2022-11-28T22:20:30.657Z,16.25
2022-11-28T22:22:58.188Z,16.88
2022-11-28T22:25:27.106Z,16.17
2022-11-28T22:27:54.657Z,16.65
2022-11-28T22:30:22.337Z,17.98
2022-11-28T22:32:49.971Z,16.85
2022-11-28T22:35:17.587Z,17.02
2022-11-28T22:37:45.140Z,17.65
2022-11-28T22:40:13.383Z,16.60
2022-11-28T22:42:42.346Z,16.58
2022-11-28T22:45:10.481Z,17.08
2022-11-28T22:47:38.061Z,17.30
2022-11-28T22:50:06.203Z,17.70
2022-11-28T22:52:33.751Z,16.45
2022-11-28T22:55:01.318Z,17.38
2022-11-28T22:57:28.963Z,17.98
2022-11-28T22:59:57.890Z,17.08
2022-11-28T23:02:25.513Z,16.30
2022-11-28T23:04:53.153Z,16.75
2022-11-28T23:07:20.782Z,17.65
2022-11-28T23:09:48.399Z,17.90
2022-11-28T23:12:15.939Z,16.48
2022-11-28T23:14:43.818Z,16.55
2022-11-28T23:17:12.862Z,15.95
2022-11-28T23:19:41.029Z,15.32
2022-11-28T23:22:08.498Z,16.20
2022-11-28T23:24:36.025Z,15.75
2022-11-28T23:27:03.572Z,15.93
2022-11-28T23:29:31.183Z,16.75
2022-11-28T23:31:58.862Z,16.55
2022-11-28T23:34:28.011Z,16.77
2022-11-28T23:36:55.529Z,15.63
2022-11-28T23:39:23.594Z,15.57
2022-11-28T23:41:51.316Z,16.75
2022-11-28T23:44:19.603Z,16.17
2022-11-28T23:46:48.124Z,17.02
2022-11-28T23:49:15.684Z,17.20
2022-11-28T23:51:44.692Z,16.80
2022-11-28T23:54:12.960Z,16.45
2022-11-28T23:56:41.225Z,18.10
2022-11-28T23:59:10.226Z,17.73
